Time;durP1;ratioP1;P1;durP2;ratioP2;P2;SDS_P1;SDS_P2;PMS_P1;PMS_P2;Temp;Humidity;BMP_temperature;BMP_pressure;BME280_temperature;BME280_humidity;BME280_pressure;Samples;Min_cycle;Max_cycle;Signal;HPM_P1;HPM_P2
2021/09/22 00:03:01;;;;;;;4.10;1.98;;;;;;;8.79;76.35;100058.58;1697110;84;21765;-76
2021/09/22 00:06:08;;;;;;;5.42;2.10;;;;;;;8.76;76.50;100056.21;1697653;84;21316;-80
2021/09/22 00:09:14;;;;;;;4.20;2.45;;;;;;;8.73;76.90;100057.91;1696939;84;21221;-80
2021/09/22 00:12:19;;;;;;;4.40;1.60;;;;;;;8.71;77.19;100055.36;1697718;84;21770;-80
2021/09/22 00:15:27;;;;;;;5.05;1.90;;;;;;;8.68;77.40;100044.78;1697037;84;21244;-77
2021/09/22 00:18:32;;;;;;;8.20;2.77;;;;;;;8.65;77.77;100042.39;1697058;84;21177;-76
2021/09/22 00:21:38;;;;;;;4.08;2.10;;;;;;;8.59;78.27;100043.92;1697117;84;21189;-76
2021/09/22 00:24:44;;;;;;;4.12;2.33;;;;;;;8.59;78.82;100038.98;1697442;84;21217;-76
2021/09/22 00:27:49;;;;;;;4.08;2.17;;;;;;;8.56;79.48;100042.04;1698494;84;21268;-80
2021/09/22 00:30:55;;;;;;;3.60;2.10;;;;;;;8.52;80.00;100040.70;1698505;84;21763;-76
2021/09/22 00:34:00;;;;;;;5.42;2.30;;;;;;;8.46;80.59;100031.30;1698494;84;21315;-80
2021/09/22 00:37:06;;;;;;;5.22;2.15;;;;;;;8.44;80.99;100038.81;1697590;84;21331;-77
2021/09/22 00:40:12;;;;;;;3.85;2.37;;;;;;;8.41;81.27;100037.78;1697610;84;21178;-76
2021/09/22 00:43:17;;;;;;;4.37;1.77;;;;;;;8.36;81.63;100038.28;1698551;84;21332;-77
2021/09/22 00:46:22;;;;;;;5.85;2.20;;;;;;;8.34;81.82;100036.22;1698283;84;21320;-76
2021/09/22 00:49:28;;;;;;;2.90;2.20;;;;;;;8.36;81.98;100038.28;1697037;84;21680;-76
2021/09/22 00:52:33;;;;;;;2.90;2.00;;;;;;;8.39;82.05;100042.56;1694733;84;21201;-80
2021/09/22 00:55:40;;;;;;;1.95;1.60;;;;;;;8.38;82.09;100043.07;1690033;84;21193;-80
2021/09/22 00:58:49;;;;;;;3.72;1.65;;;;;;;8.40;82.18;100030.11;1690258;85;21750;-80
2021/09/22 01:01:55;;;;;;;2.90;1.77;;;;;;;8.47;82.28;100025.34;1690138;85;21944;-80
2021/09/22 01:05:00;;;;;;;4.83;1.82;;;;;;;8.51;82.19;100029.44;1691338;85;21272;-80
2021/09/22 01:08:09;;;;;;;2.27;1.80;;;;;;;8.52;82.18;100024.35;1689924;84;21810;-80
2021/09/22 01:11:13;;;;;;;5.03;1.90;;;;;;;8.55;82.09;100025.34;1691429;85;21874;-80
2021/09/22 01:14:19;;;;;;;5.40;2.27;;;;;;;8.57;81.95;100022.81;1691411;85;21221;-77
2021/09/22 01:17:27;;;;;;;2.22;1.77;;;;;;;8.59;81.81;100030.81;1690014;84;21182;-76
2021/09/22 01:20:33;;;;;;;3.30;1.95;;;;;;;8.63;81.73;100029.45;1691470;85;21209;-80
2021/09/22 01:23:40;;;;;;;2.58;1.62;;;;;;;8.67;81.69;100022.12;1690179;84;21170;-80
2021/09/22 01:26:46;;;;;;;2.87;1.80;;;;;;;8.71;81.48;100021.27;1690884;84;21186;-80
2021/09/22 01:29:50;;;;;;;4.97;1.87;;;;;;;8.70;81.19;100019.55;1691432;85;21277;-76
2021/09/22 01:33:06;;;;;;;3.37;1.92;;;;;;;8.71;81.07;100014.45;1691469;85;21311;-80
2021/09/22 01:36:13;;;;;;;3.12;2.00;;;;;;;8.72;80.97;100013.43;1691636;85;21264;-77
2021/09/22 01:39:12;;;;;;;3.37;2.00;;;;;;;8.75;80.91;100014.46;1691550;85;21281;-79
2021/09/22 01:42:18;;;;;;;3.02;1.77;;;;;;;8.78;80.81;100012.73;1691387;85;21299;-80
2021/09/22 01:45:23;;;;;;;5.17;2.12;;;;;;;8.82;80.67;100011.37;1691409;85;21822;-79
2021/09/22 01:48:29;;;;;;;2.80;2.10;;;;;;;8.84;80.51;100018.85;1691685;85;21269;-76
2021/09/22 01:51:35;;;;;;;4.50;2.20;;;;;;;8.83;80.40;100013.06;1691536;85;21181;-76
2021/09/22 01:54:42;;;;;;;4.42;1.98;;;;;;;8.85;80.37;100015.64;1695497;84;21854;-80
2021/09/22 01:57:49;;;;;;;2.45;1.75;;;;;;;8.88;80.32;100015.27;1698598;84;21210;-80
2021/09/22 02:01:16;;;;;;;1.62;1.30;;;;;;;8.91;80.21;100015.79;1698552;84;21146;-80
2021/09/22 02:04:24;;;;;;;5.42;1.50;;;;;;;8.96;79.94;100020.21;1698645;84;21281;-76
2021/09/22 02:07:31;;;;;;;4.53;2.12;;;;;;;8.98;79.57;100024.13;1698483;84;21340;-79
2021/09/22 02:10:39;;;;;;;2.75;1.70;;;;;;;8.98;79.40;100026.00;1698648;84;21811;-76
2021/09/22 02:13:43;;;;;;;4.47;1.85;;;;;;;8.99;79.27;100025.84;1698694;84;21149;-80
2021/09/22 02:16:52;;;;;;;5.78;1.98;;;;;;;9.01;79.13;100023.78;1698536;84;21311;-77
2021/09/22 02:20:03;;;;;;;3.58;1.72;;;;;;;9.02;78.94;100025.48;1697153;84;21708;-76
2021/09/22 02:23:24;;;;;;;4.12;1.62;;;;;;;9.02;78.78;100020.54;1696546;84;21324;-76
2021/09/22 02:26:31;;;;;;;2.62;1.90;;;;;;;9.00;78.67;100022.61;1696835;84;21791;-80
2021/09/22 02:29:38;;;;;;;2.12;1.62;;;;;;;8.96;78.64;100022.94;1698362;84;21814;-80
2021/09/22 02:32:45;;;;;;;2.75;2.00;;;;;;;8.94;78.60;100026.37;1698526;84;21721;-77
2021/09/22 02:35:51;;;;;;;4.33;2.02;;;;;;;8.92;78.52;100027.03;1698565;84;21276;-76
2021/09/22 02:38:59;;;;;;;3.70;2.10;;;;;;;8.93;78.56;100026.00;1683279;84;21819;-80
2021/09/22 02:42:07;;;;;;;3.22;1.92;;;;;;;8.93;78.61;100029.24;1697701;84;21197;-76
2021/09/22 02:45:13;;;;;;;4.08;1.87;;;;;;;8.91;78.51;100029.43;1698534;84;21269;-76
2021/09/22 02:48:19;;;;;;;4.58;1.90;;;;;;;8.93;78.56;100028.73;1698463;84;21172;-77
2021/09/22 02:51:25;;;;;;;5.67;2.70;;;;;;;8.93;78.54;100032.82;1698486;84;21320;-81
2021/09/22 02:54:31;;;;;;;1.98;1.80;;;;;;;8.94;78.52;100027.73;1697878;84;21244;-79
2021/09/22 02:57:39;;;;;;;3.33;2.10;;;;;;;8.95;78.36;100032.16;1697741;84;21727;-77
2021/09/22 03:00:44;;;;;;;3.33;2.42;;;;;;;8.93;78.19;100027.88;1698534;84;21276;-77
2021/09/22 03:03:50;;;;;;;9.08;2.40;;;;;;;8.87;78.10;100030.80;1698609;84;21149;-80
2021/09/22 03:06:55;;;;;;;6.17;2.45;;;;;;;8.87;78.22;100034.03;1698538;84;21312;-80
2021/09/22 03:10:02;;;;;;;3.40;2.47;;;;;;;8.85;78.34;100026.55;1706896;83;21135;-76
2021/09/22 03:13:07;;;;;;;4.42;3.05;;;;;;;8.87;78.42;100028.06;1728913;83;21308;-76
2021/09/22 03:16:15;;;;;;;4.45;3.05;;;;;;;8.88;78.30;100031.13;1661157;86;21282;-81
2021/09/22 03:19:21;;;;;;;5.10;3.35;;;;;;;8.90;78.29;100018.70;1721733;83;21166;-80
2021/09/22 03:22:27;;;;;;;6.83;3.47;;;;;;;8.91;78.24;100019.87;1727778;83;21221;-80
2021/09/22 03:25:44;;;;;;;6.53;3.62;;;;;;;8.91;78.27;100021.77;1660201;86;21346;-80
2021/09/22 03:28:49;;;;;;;5.80;4.15;;;;;;;8.94;78.32;100019.55;1699110;84;21319;-80
2021/09/22 03:31:56;;;;;;;6.17;4.55;;;;;;;8.97;78.26;100019.70;1633125;87;21815;-76
2021/09/22 03:35:02;;;;;;;4.97;3.87;;;;;;;9.03;78.23;100024.97;1718834;83;21715;-76
2021/09/22 03:38:08;;;;;;;5.85;3.83;;;;;;;9.04;78.09;100019.87;1727484;83;21230;-76
2021/09/22 03:41:16;;;;;;;6.30;3.95;;;;;;;9.06;77.98;100026.00;1728327;83;21150;-76
2021/09/22 03:44:21;;;;;;;9.30;3.83;;;;;;;9.08;77.88;100028.91;1728604;83;21795;-80
2021/09/22 03:47:26;;;;;;;5.17;3.45;;;;;;;9.08;77.78;100026.17;1727946;83;21155;-76
2021/09/22 03:50:33;;;;;;;4.28;3.05;;;;;;;9.07;77.71;100029.05;1728583;83;21377;-80
2021/09/22 03:53:41;;;;;;;5.20;3.10;;;;;;;9.07;77.87;100030.42;1728798;83;21285;-80
2021/09/22 03:56:46;;;;;;;6.17;2.90;;;;;;;9.10;77.89;100031.45;1729283;82;21795;-80
2021/09/22 03:59:51;;;;;;;7.67;2.83;;;;;;;9.11;77.78;100029.05;1642894;87;21142;-79
2021/09/22 04:02:58;;;;;;;4.65;2.75;;;;;;;9.12;77.67;100030.23;1666263;86;21217;-80
2021/09/22 04:06:04;;;;;;;4.78;2.75;;;;;;;9.11;77.64;100025.80;1667316;86;21317;-80
2021/09/22 04:09:14;;;;;;;3.62;2.40;;;;;;;9.11;77.74;100029.05;1638983;87;21807;-76
2021/09/22 04:12:19;;;;;;;3.00;2.50;;;;;;;9.14;77.71;100031.45;1643812;87;21287;-80
2021/09/22 04:15:25;;;;;;;3.08;2.25;;;;;;;9.16;77.61;100033.47;1648163;84;21164;-76
2021/09/22 04:18:31;;;;;;;3.15;2.00;;;;;;;9.17;77.56;100028.34;1666990;86;21316;-76
2021/09/22 04:21:38;;;;;;;4.72;2.50;;;;;;;9.20;77.42;100030.73;1661662;86;21273;-80
2021/09/22 04:24:43;;;;;;;3.12;2.02;;;;;;;9.18;77.33;100025.98;1663967;85;21681;-79
2021/09/22 04:27:49;;;;;;;6.83;1.85;;;;;;;9.19;77.35;100022.22;1627155;87;21293;-76
2021/09/22 04:31:12;;;;;;;2.22;1.80;;;;;;;9.19;77.34;100030.41;1640300;87;21256;-77
2021/09/22 04:34:36;;;;;;;3.50;1.80;;;;;;;9.17;77.22;100028.34;1659436;85;21272;-80
2021/09/22 04:37:59;;;;;;;6.33;2.40;;;;;;;9.14;77.35;100030.08;1641537;86;21290;-80
2021/09/22 04:41:15;;;;;;;5.22;2.15;;;;;;;9.12;77.49;100030.23;1602535;87;21955;-80
2021/09/22 04:44:38;;;;;;;4.05;1.85;;;;;;;9.12;77.40;100030.23;1680486;84;21286;-76
2021/09/22 04:48:02;;;;;;;3.17;1.85;;;;;;;9.14;77.32;100033.66;1668134;85;21937;-77
2021/09/22 04:51:25;;;;;;;2.55;1.60;;;;;;;9.13;77.12;100027.87;1657795;85;21206;-76
2021/09/22 04:54:48;;;;;;;3.02;2.00;;;;;;;9.15;77.09;100032.63;1655811;86;21349;-81
2021/09/22 04:58:11;;;;;;;2.55;1.50;;;;;;;9.18;77.05;100026.83;1650301;84;21201;-77
2021/09/22 05:01:34;;;;;;;3.47;2.17;;;;;;;9.27;76.95;100026.30;1684283;83;22191;-77
2021/09/22 05:04:57;;;;;;;4.30;2.08;;;;;;;9.33;76.44;100030.20;1654994;86;21283;-77
2021/09/22 05:08:08;;;;;;;2.00;1.75;;;;;;;9.41;76.37;100029.67;1646094;84;21254;-82
2021/09/22 05:11:25;;;;;;;3.27;2.02;;;;;;;9.52;76.34;100028.95;1687487;83;21731;-81
2021/09/22 05:14:51;;;;;;;2.72;1.70;;;;;;;9.63;75.98;100028.55;1680543;83;21205;-78
2021/09/22 05:18:14;;;;;;;2.45;1.92;;;;;;;9.70;75.25;100023.58;1684577;83;22000;-76
2021/09/22 05:21:38;;;;;;;2.85;1.70;;;;;;;9.73;75.17;100025.08;1683354;83;21516;-77
2021/09/22 05:25:01;;;;;;;3.25;1.92;;;;;;;9.82;74.80;100026.75;1680859;83;21254;-78
2021/09/22 05:28:28;;;;;;;2.27;1.47;;;;;;;9.90;74.59;100023.14;1685483;83;21319;-81
2021/09/22 05:31:45;;;;;;;5.03;1.80;;;;;;;9.92;73.95;100028.73;1683415;83;21325;-80
2021/09/22 05:35:07;;;;;;;4.37;2.20;;;;;;;9.90;73.96;100021.77;1683718;84;21363;-81
2021/09/22 05:38:36;;;;;;;3.17;1.90;;;;;;;9.94;74.00;100029.43;1685363;83;21375;-82
2021/09/22 05:42:03;;;;;;;4.08;2.27;;;;;;;9.94;73.40;100034.89;1681041;83;21596;-81
2021/09/22 05:45:28;;;;;;;3.98;2.60;;;;;;;9.94;73.15;100030.80;1679652;83;21623;-81
2021/09/22 05:48:52;;;;;;;3.80;2.77;;;;;;;9.97;71.91;100026.34;1682063;83;21838;-82
2021/09/22 05:52:17;;;;;;;3.83;2.22;;;;;;;10.01;71.86;100021.36;1680882;83;21461;-83
2021/09/22 05:55:41;;;;;;;3.20;2.72;;;;;;;10.10;72.02;100022.16;1687265;83;21211;-83
2021/09/22 05:59:04;;;;;;;3.83;2.12;;;;;;;10.19;71.44;100023.81;1665454;83;21350;-82
2021/09/22 06:02:27;;;;;;;3.55;2.40;;;;;;;10.26;70.81;100026.20;1668491;84;21380;-84
2021/09/22 06:05:51;;;;;;;5.67;2.40;;;;;;;10.29;70.82;100020.88;1669287;84;21210;-83
2021/09/22 06:09:03;;;;;;;2.90;2.37;;;;;;;10.40;70.83;100026.79;1668334;84;21831;-84
2021/09/22 06:12:16;;;;;;;5.25;2.62;;;;;;;10.57;70.43;100019.81;1681820;81;21262;-85
2021/09/22 06:15:24;;;;;;;2.40;2.20;;;;;;;10.77;69.79;100021.00;1679394;85;21871;-84
2021/09/22 06:18:30;;;;;;;3.95;2.90;;;;;;;10.86;68.02;100017.67;1645548;86;21232;-84
2021/09/22 06:21:36;;;;;;;2.72;2.25;;;;;;;10.87;67.25;100024.84;1651455;86;21286;-84
2021/09/22 06:24:43;;;;;;;2.58;2.33;;;;;;;10.89;67.43;100023.63;1648336;85;22078;-84
2021/09/22 06:27:50;;;;;;;2.72;2.40;;;;;;;10.87;67.51;100022.10;1650798;85;21310;-85
2021/09/22 06:30:56;;;;;;;2.87;2.35;;;;;;;10.87;67.55;100024.84;1645737;85;21208;-84
2021/09/22 06:34:07;;;;;;;2.60;2.22;;;;;;;10.81;67.19;100026.44;1649698;85;21193;-85
2021/09/22 06:37:12;;;;;;;2.60;2.25;;;;;;;10.71;66.25;100033.53;1648536;86;21363;-83
2021/09/22 06:40:21;;;;;;;3.10;2.55;;;;;;;10.62;65.71;100034.63;1665978;84;21680;-83
2021/09/22 06:43:27;;;;;;;4.50;2.80;;;;;;;10.62;66.04;100040.10;1670986;84;21174;-83
2021/09/22 06:46:33;;;;;;;3.62;2.30;;;;;;;10.77;66.78;100040.14;1652808;85;21293;-83
2021/09/22 06:49:39;;;;;;;3.65;2.58;;;;;;;10.94;66.09;100044.45;1669887;84;21327;-83
2021/09/22 06:52:48;;;;;;;2.42;2.15;;;;;;;10.93;65.18;100044.13;1667299;84;21227;-81
2021/09/22 06:55:55;;;;;;;3.30;2.52;;;;;;;10.89;65.62;100048.26;1670775;84;21807;-83
2021/09/22 06:58:59;;;;;;;7.55;2.55;;;;;;;10.91;65.71;100048.06;1649771;85;21543;-83
2021/09/22 07:02:06;;;;;;;3.47;2.52;;;;;;;10.92;65.71;100045.16;1648428;85;21228;-78
2021/09/22 07:05:14;;;;;;;4.30;2.60;;;;;;;10.89;65.84;100048.78;1645854;86;21185;-79
2021/09/22 07:08:20;;;;;;;2.37;2.00;;;;;;;10.93;66.17;100048.22;1644007;85;21206;-79
2021/09/22 07:11:25;;;;;;;3.20;2.25;;;;;;;11.10;65.77;100051.64;1648341;85;21188;-78
2021/09/22 07:14:31;;;;;;;4.37;2.00;;;;;;;11.35;65.00;100058.26;1657648;84;21173;-78
2021/09/22 07:17:37;;;;;;;5.08;2.05;;;;;;;11.56;64.23;100056.98;1652499;84;21800;-79
2021/09/22 07:20:42;;;;;;;2.02;1.50;;;;;;;11.77;64.08;100056.23;1675751;83;21281;-79
2021/09/22 07:23:47;;;;;;;2.25;1.32;;;;;;;12.06;63.55;100051.78;1657890;86;21311;-78
2021/09/22 07:26:53;;;;;;;2.20;1.60;;;;;;;12.34;61.62;100040.41;1652141;84;21260;-78
2021/09/22 07:29:58;;;;;;;3.87;1.70;;;;;;;12.54;59.95;100041.45;1658740;84;21407;-86
2021/09/22 07:33:06;;;;;;;1.98;1.50;;;;;;;12.61;58.77;100039.28;1678315;83;21222;-78
2021/09/22 07:36:11;;;;;;;4.22;1.90;;;;;;;12.49;58.35;100042.56;1712129;81;21190;-78
2021/09/22 07:39:19;;;;;;;1.45;1.35;;;;;;;12.42;59.34;100038.03;1675158;83;22096;-77
2021/09/22 07:42:26;;;;;;;4.60;1.65;;;;;;;12.38;59.95;100028.53;1714859;81;21245;-79
2021/09/22 07:45:31;;;;;;;4.87;1.85;;;;;;;12.34;59.49;100036.81;1714851;81;21166;-79
2021/09/22 07:48:38;;;;;;;1.70;1.60;;;;;;;12.29;59.90;100037.39;1703735;81;21689;-79
2021/09/22 07:51:45;;;;;;;2.47;1.52;;;;;;;12.26;59.38;100032.29;1707920;81;21300;-78
2021/09/22 07:54:53;;;;;;;2.08;1.50;;;;;;;12.19;59.74;100030.86;1712798;82;21352;-79
2021/09/22 07:58:00;;;;;;;2.20;1.70;;;;;;;12.26;59.74;100030.92;1670463;84;21216;-80
2021/09/22 08:01:05;;;;;;;3.35;1.62;;;;;;;12.40;59.98;100029.17;1674390;83;21182;-79
2021/09/22 08:04:14;;;;;;;3.98;1.30;;;;;;;12.65;60.21;100025.50;1662598;84;21335;-78
2021/09/22 08:07:19;;;;;;;2.52;1.47;;;;;;;12.86;59.24;100015.89;1672571;84;21353;-81
2021/09/22 08:10:27;;;;;;;4.87;1.80;;;;;;;13.01;58.70;100013.05;1675232;84;21288;-82
2021/09/22 08:13:33;;;;;;;1.65;1.37;;;;;;;13.13;57.49;100013.37;1675825;83;21344;-81
2021/09/22 08:16:38;;;;;;;2.60;1.95;;;;;;;13.19;56.97;100016.67;1673788;83;21222;-82
2021/09/22 08:19:51;;;;;;;3.40;1.20;;;;;;;13.28;57.45;100014.98;1669666;85;21608;-81
2021/09/22 08:22:57;;;;;;;1.85;1.30;;;;;;;13.44;56.95;100018.45;1657446;85;21225;-78
2021/09/22 08:26:03;;;;;;;8.20;1.37;;;;;;;13.53;55.94;100007.62;1666218;84;21244;-76
2021/09/22 08:29:10;;;;;;;4.45;1.57;;;;;;;13.59;56.20;100010.08;1668528;85;21701;-76
2021/09/22 08:32:16;;;;;;;2.08;1.70;;;;;;;13.53;56.38;100007.62;1677580;85;21861;-76
2021/09/22 08:35:24;;;;;;;2.33;1.80;;;;;;;13.54;56.04;100007.41;1666290;84;21831;-83
2021/09/22 08:38:35;;;;;;;2.50;1.67;;;;;;;13.46;55.59;100005.38;1666253;84;21224;-79
2021/09/22 08:41:43;;;;;;;2.12;1.40;;;;;;;13.39;56.30;100003.95;1667802;84;21433;-77
2021/09/22 08:44:53;;;;;;;1.70;1.50;;;;;;;13.40;56.27;100004.27;1656991;85;21282;-78
2021/09/22 08:47:57;;;;;;;3.05;1.67;;;;;;;13.44;55.22;99993.20;1665256;84;21236;-77
2021/09/22 08:51:03;;;;;;;1.92;1.40;;;;;;;13.47;55.64;99991.42;1666590;84;21201;-77
2021/09/22 08:54:10;;;;;;;1.20;1.10;;;;;;;13.58;54.89;99996.86;1667371;85;21173;-76
2021/09/22 08:57:20;;;;;;;1.47;1.35;;;;;;;13.60;54.38;99988.41;1668453;84;21230;-83
2021/09/22 09:00:24;;;;;;;1.70;1.20;;;;;;;13.55;53.75;99995.39;1668017;84;21323;-79
2021/09/22 09:03:42;;;;;;;1.15;1.02;;;;;;;13.52;53.33;99987.55;1665716;84;21502;-78
2021/09/22 09:06:49;;;;;;;2.90;1.02;;;;;;;13.51;53.97;99987.75;1667145;84;21872;-82
2021/09/22 09:09:58;;;;;;;1.75;1.30;;;;;;;13.55;54.98;99983.55;1667827;84;21193;-82
2021/09/22 09:13:18;;;;;;;1.87;1.05;;;;;;;13.57;53.72;99979.22;1679807;85;21747;-83
2021/09/22 09:16:26;;;;;;;4.03;1.05;;;;;;;13.60;53.47;99981.53;1660262;84;21228;-78
2021/09/22 09:19:37;;;;;;;1.10;1.00;;;;;;;13.61;52.94;99976.39;1661374;84;21227;-78
2021/09/22 09:22:48;;;;;;;0.80;0.80;;;;;;;13.64;52.32;99980.08;1666124;84;21247;-81
2021/09/22 09:26:08;;;;;;;3.83;0.78;;;;;;;13.67;52.54;99981.06;1663699;85;21193;-81
2021/09/22 09:29:17;;;;;;;1.30;0.78;;;;;;;13.60;51.40;99981.04;1677371;83;21316;-78
2021/09/22 09:32:25;;;;;;;0.95;0.60;;;;;;;13.43;51.35;99976.92;1668225;84;21825;-78
2021/09/22 09:35:34;;;;;;;1.05;0.70;;;;;;;13.38;51.40;99975.31;1662850;84;21184;-79
2021/09/22 09:38:40;;;;;;;1.95;1.47;;;;;;;13.32;51.54;99981.09;1675010;83;21320;-77
2021/09/22 09:41:52;;;;;;;4.20;1.00;;;;;;;13.19;52.00;99976.33;1635270;86;21222;-77
2021/09/22 09:44:58;;;;;;;1.02;0.80;;;;;;;13.04;52.12;99977.81;1661961;84;21181;-78
2021/09/22 09:48:11;;;;;;;2.02;1.12;;;;;;;12.89;52.90;99977.58;1643792;84;21189;-77
2021/09/22 09:51:17;;;;;;;3.80;0.90;;;;;;;12.67;54.31;99983.11;1666233;84;21929;-78
2021/09/22 09:54:36;;;;;;;1.45;1.00;;;;;;;12.52;55.01;99992.80;1670182;84;21242;-76
2021/09/22 09:57:43;;;;;;;1.07;0.80;;;;;;;12.42;55.91;99996.41;1660104;84;21201;-77
2021/09/22 10:00:57;;;;;;;0.98;0.78;;;;;;;12.28;55.79;100005.54;1645042;83;21748;-75
2021/09/22 10:04:00;;;;;;;1.02;0.93;;;;;;;12.17;56.14;100002.77;1647919;85;21213;-77
2021/09/22 10:07:05;;;;;;;1.05;0.70;;;;;;;12.15;56.54;100003.50;1635218;86;21340;-76
2021/09/22 10:10:14;;;;;;;1.35;0.88;;;;;;;12.16;56.74;99999.70;1635645;86;21304;-79
2021/09/22 10:13:23;;;;;;;1.30;0.80;;;;;;;12.20;56.75;100002.91;1630669;86;21274;-78
2021/09/22 10:16:36;;;;;;;1.85;0.70;;;;;;;12.18;56.66;99996.23;1657843;84;21195;-78
2021/09/22 10:19:41;;;;;;;1.00;0.70;;;;;;;12.12;56.65;99990.16;1656701;84;21979;-77
2021/09/22 10:22:47;;;;;;;0.72;0.70;;;;;;;12.14;56.53;99998.18;1646324;85;21377;-77
2021/09/22 10:25:53;;;;;;;1.32;0.80;;;;;;;12.07;56.29;99995.91;1668986;83;22202;-77
2021/09/22 10:29:27;;;;;;;1.22;0.85;;;;;;;12.02;56.65;99997.86;1662212;84;22069;-76
2021/09/22 10:32:47;;;;;;;1.12;1.00;;;;;;;11.98;56.46;99993.27;1710438;81;21202;-77
2021/09/22 10:35:52;;;;;;;1.75;0.80;;;;;;;11.95;56.73;99999.66;1713299;81;21286;-78
2021/09/22 10:38:58;;;;;;;0.70;0.57;;;;;;;11.86;56.58;99992.09;1702312;81;21239;-78
2021/09/22 10:42:08;;;;;;;1.12;0.93;;;;;;;11.81;56.73;99995.90;1677371;83;21334;-77
2021/09/22 10:45:28;;;;;;;1.55;0.82;;;;;;;11.78;57.29;99994.37;1652497;85;21710;-83
2021/09/22 10:48:33;;;;;;;1.57;0.80;;;;;;;11.79;57.50;99996.59;1666012;84;21301;-82
2021/09/22 10:51:43;;;;;;;0.70;0.70;;;;;;;11.81;57.68;99996.39;1716881;81;21926;-82
2021/09/22 10:55:10;;;;;;;2.27;0.80;;;;;;;11.79;57.65;99988.38;1712506;81;21474;-80
2021/09/22 10:58:26;;;;;;;1.67;1.00;;;;;;;11.72;57.56;99988.83;1712140;81;21851;-80
2021/09/22 11:01:49;;;;;;;;;;;;;;;11.65;57.66;99983.77;1716042;81;21174;-82
2021/09/22 11:05:04;;;;;;;1.82;0.90;;;;;;;11.55;58.04;99984.59;1713481;81;20523;-78
2021/09/22 11:08:12;;;;;;;2.12;0.80;;;;;;;11.42;58.65;99983.36;1713995;81;21211;-79
2021/09/22 11:11:17;;;;;;;7.35;1.00;;;;;;;11.39;58.69;99981.02;1713097;81;22037;-80
2021/09/22 11:14:56;;;;;;;1.60;0.90;;;;;;;11.41;59.18;99976.19;1712872;81;21308;-82
2021/09/22 11:18:01;;;;;;;2.83;0.70;;;;;;;11.47;59.20;99975.42;1715532;81;21281;-83
2021/09/22 11:21:11;;;;;;;0.90;0.90;;;;;;;11.60;59.01;99972.54;1713302;83;21297;-83
2021/09/22 11:24:21;;;;;;;2.10;1.07;;;;;;;11.63;58.66;99970.27;1672756;83;21349;-82
2021/09/22 11:27:29;;;;;;;1.57;1.47;;;;;;;11.67;59.22;99975.70;1676276;85;21241;-83
2021/09/22 11:30:36;;;;;;;1.55;1.30;;;;;;;11.68;59.00;99968.33;1714543;83;21179;-83
2021/09/22 11:33:41;;;;;;;2.10;1.50;;;;;;;11.67;58.85;99964.75;1678416;85;21742;-84
2021/09/22 11:36:47;;;;;;;1.25;1.12;;;;;;;11.68;58.76;99960.11;1717149;82;21245;-84
2021/09/22 11:39:52;;;;;;;2.05;1.55;;;;;;;11.66;58.60;99955.33;1718517;81;21619;-83
2021/09/22 11:43:07;;;;;;;3.22;1.70;;;;;;;11.64;58.15;99957.42;1709525;81;21194;-82
2021/09/22 11:46:13;;;;;;;1.77;1.25;;;;;;;11.68;58.31;99952.73;1710701;81;21186;-83
2021/09/22 11:49:20;;;;;;;2.25;1.37;;;;;;;11.73;58.58;99957.64;1677095;85;21169;-81
2021/09/22 11:52:27;;;;;;;1.25;1.00;;;;;;;11.76;58.75;99955.37;1710595;81;21715;-83
2021/09/22 11:55:32;;;;;;;1.62;1.22;;;;;;;11.78;58.77;99953.28;1710815;81;21179;-85
2021/09/22 11:58:43;;;;;;;1.37;1.07;;;;;;;11.81;58.61;99951.18;1714535;81;21643;-83
2021/09/22 12:01:47;;;;;;;1.30;1.20;;;;;;;11.83;58.63;99960.95;1675581;83;21247;-82
2021/09/22 12:04:55;;;;;;;1.37;1.10;;;;;;;11.88;58.72;99957.11;1668442;84;21834;-77
2021/09/22 12:08:03;;;;;;;5.22;1.87;;;;;;;12.01;58.57;99955.05;1666922;84;21249;-76
2021/09/22 12:11:10;;;;;;;3.35;1.80;;;;;;;12.11;57.77;99953.36;1674691;83;21189;-77
2021/09/22 12:14:14;;;;;;;2.00;1.52;;;;;;;12.17;57.57;99957.52;1661757;84;21307;-76
2021/09/22 12:17:21;;;;;;;2.00;1.60;;;;;;;12.28;57.50;99967.14;1644597;86;21791;-77
2021/09/22 12:20:27;;;;;;;4.33;1.65;;;;;;;12.33;57.32;99971.52;1626878;87;21939;-80
2021/09/22 12:23:39;;;;;;;5.25;1.77;;;;;;;12.43;57.16;99964.33;1642562;85;21380;-83
2021/09/22 12:26:59;;;;;;;2.30;1.60;;;;;;;12.47;57.49;99969.75;1626508;87;21234;-83
2021/09/22 12:30:13;;;;;;;9.45;1.65;;;;;;;12.52;57.60;99964.00;1627814;87;21526;-77
2021/09/22 12:33:18;;;;;;;4.40;1.75;;;;;;;12.55;57.25;99966.85;1644667;87;21340;-83
2021/09/22 12:36:25;;;;;;;2.95;1.50;;;;;;;12.56;57.05;99966.33;1623339;87;21307;-78
2021/09/22 12:39:32;;;;;;;3.95;1.87;;;;;;;12.59;56.80;99955.81;1622941;87;21729;-78
2021/09/22 12:42:53;;;;;;;3.55;1.80;;;;;;;12.61;56.62;99956.48;1629290;86;21625;-79
2021/09/22 12:46:14;;;;;;;2.50;1.80;;;;;;;12.66;57.05;99950.40;1631312;86;21210;-77
2021/09/22 12:49:25;;;;;;;5.70;1.80;;;;;;;12.67;55.67;99952.94;1618099;87;21705;-77
2021/09/22 12:52:32;;;;;;;3.00;1.60;;;;;;;12.59;55.90;99954.97;1614789;87;21775;-83
2021/09/22 12:55:38;;;;;;;1.82;1.10;;;;;;;12.64;56.63;99953.84;1628801;86;21205;-83
2021/09/22 12:58:43;;;;;;;6.30;1.40;;;;;;;12.70;56.38;99955.29;1607578;87;21821;-77
2021/09/22 13:01:49;;;;;;;2.47;1.60;;;;;;;12.66;56.24;99955.89;1633119;86;21841;-77
2021/09/22 13:04:56;;;;;;;3.62;1.47;;;;;;;12.63;56.95;99951.62;1637083;87;21776;-83
2021/09/22 13:08:08;;;;;;;4.92;1.30;;;;;;;12.63;56.35;99957.64;1632481;86;21942;-77
2021/09/22 13:11:15;;;;;;;2.45;1.15;;;;;;;12.58;55.84;99950.53;1627568;86;21242;-78
2021/09/22 13:14:23;;;;;;;1.72;1.30;;;;;;;12.52;56.49;99953.02;1637636;86;21696;-77
2021/09/22 13:17:28;;;;;;;1.40;1.25;;;;;;;12.52;56.33;99954.92;1647867;85;21352;-77
2021/09/22 13:20:35;;;;;;;1.10;0.95;;;;;;;12.47;56.38;99948.66;1628868;85;21202;-78
2021/09/22 13:23:42;;;;;;;3.35;1.30;;;;;;;12.44;56.50;99946.83;1630699;87;21472;-76
2021/09/22 13:26:48;;;;;;;4.45;1.07;;;;;;;12.42;56.61;99942.04;1619467;86;21205;-82
2021/09/22 13:29:54;;;;;;;1.70;1.40;;;;;;;12.38;55.88;99950.36;1646476;86;21244;-82
2021/09/22 13:33:00;;;;;;;1.50;1.10;;;;;;;12.28;55.84;99950.69;1638312;87;21416;-84
2021/09/22 13:36:06;;;;;;;2.08;1.42;;;;;;;12.24;56.47;99954.87;1635204;87;21311;-78
2021/09/22 13:39:13;;;;;;;1.75;1.35;;;;;;;12.20;56.91;99950.29;1634475;87;21187;-77
2021/09/22 13:42:20;;;;;;;1.87;1.27;;;;;;;12.17;56.95;99947.08;1630810;85;21294;-82
2021/09/22 13:45:26;;;;;;;3.62;1.20;;;;;;;12.12;57.15;99944.92;1630570;87;21301;-77
2021/09/22 13:48:34;;;;;;;1.90;0.98;;;;;;;12.09;57.46;99946.70;1645114;87;21301;-81
2021/09/22 13:51:39;;;;;;;1.82;1.27;;;;;;;12.08;57.68;99956.47;1635592;85;21383;-82
2021/09/22 13:54:44;;;;;;;2.20;1.07;;;;;;;12.01;57.97;99946.30;1641095;85;21334;-77
2021/09/22 13:57:52;;;;;;;2.67;1.50;;;;;;;11.97;58.16;99944.98;1676379;85;21858;-82
2021/09/22 14:01:04;;;;;;;1.95;1.47;;;;;;;11.91;58.30;99943.55;1623399;88;21341;-77
2021/09/22 14:04:10;;;;;;;5.85;1.20;;;;;;;11.87;58.74;99945.83;1634386;87;21330;-82
2021/09/22 14:07:20;;;;;;;9.40;2.00;;;;;;;11.85;59.16;99947.89;1631947;87;21331;-82
2021/09/22 14:10:25;;;;;;;2.27;1.98;;;;;;;11.82;59.28;99952.91;1635972;87;21187;-81
2021/09/22 14:13:32;;;;;;;3.72;1.85;;;;;;;11.71;59.27;99957.81;1649649;86;21202;-77
2021/09/22 14:16:38;;;;;;;6.15;1.72;;;;;;;11.62;59.49;99960.36;1649321;86;21271;-82
2021/09/22 14:19:44;;;;;;;3.50;1.67;;;;;;;11.60;59.41;99957.47;1649564;86;21262;-82
2021/09/22 14:22:51;;;;;;;2.40;1.45;;;;;;;11.57;59.64;99949.63;1651072;86;21249;-77
2021/09/22 14:25:57;;;;;;;2.62;1.75;;;;;;;11.54;59.95;99954.98;1650776;87;21203;-76
2021/09/22 14:29:03;;;;;;;2.22;1.50;;;;;;;11.52;60.22;99955.68;1652377;87;21219;-82
2021/09/22 14:32:09;;;;;;;5.80;1.45;;;;;;;11.49;60.48;99957.45;1652492;86;21242;-78
2021/09/22 14:35:16;;;;;;;5.40;1.40;;;;;;;11.44;60.80;99966.23;1651793;87;22160;-82
2021/09/22 14:38:23;;;;;;;2.02;1.30;;;;;;;11.41;60.99;99966.61;1651807;87;21709;-82
2021/09/22 14:41:28;;;;;;;2.75;1.60;;;;;;;11.40;61.17;99968.17;1652803;86;21389;-77
2021/09/22 14:44:33;;;;;;;3.60;0.93;;;;;;;11.36;61.34;99966.33;1653023;87;21199;-77
2021/09/22 14:47:40;;;;;;;4.50;1.20;;;;;;;11.34;61.37;99965.69;1651815;86;21273;-78
2021/09/22 14:50:46;;;;;;;1.50;1.40;;;;;;;11.31;61.41;99966.58;1651734;87;21195;-77